sensor_id;sensor_type;location;lat;lon;timestamp;P1;durP1;ratioP1;P2;durP2;ratioP2
54545;SDS011;40444;45.184;9.850;2023-05-27T00:01:44;11.10;;;8.68;;
54545;SDS011;40444;45.184;9.850;2023-05-27T00:04:13;9.63;;;8.27;;
54545;SDS011;40444;45.184;9.850;2023-05-27T00:06:42;10.73;;;7.95;;
54545;SDS011;40444;45.184;9.850;2023-05-27T00:09:11;10.10;;;9.10;;
54545;SDS011;40444;45.184;9.850;2023-05-27T00:11:39;13.52;;;9.48;;
54545;SDS011;40444;45.184;9.850;2023-05-27T00:14:08;11.68;;;9.68;;
54545;SDS011;40444;45.184;9.850;2023-05-27T00:16:37;12.70;;;9.60;;
54545;SDS011;40444;45.184;9.850;2023-05-27T00:19:06;11.68;;;10.18;;
54545;SDS011;40444;45.184;9.850;2023-05-27T00:21:34;12.45;;;11.00;;
54545;SDS011;40444;45.184;9.850;2023-05-27T00:24:03;12.65;;;11.32;;
54545;SDS011;40444;45.184;9.850;2023-05-27T00:26:32;16.65;;;11.60;;
54545;SDS011;40444;45.184;9.850;2023-05-27T00:29:02;13.68;;;11.52;;
54545;SDS011;40444;45.184;9.850;2023-05-27T00:31:31;13.82;;;11.52;;
54545;SDS011;40444;45.184;9.850;2023-05-27T00:34:01;14.48;;;11.85;;
54545;SDS011;40444;45.184;9.850;2023-05-27T00:36:29;14.85;;;12.70;;
54545;SDS011;40444;45.184;9.850;2023-05-27T00:39:00;18.58;;;13.73;;
54545;SDS011;40444;45.184;9.850;2023-05-27T00:41:29;17.65;;;13.63;;
54545;SDS011;40444;45.184;9.850;2023-05-27T00:43:58;17.15;;;14.57;;
54545;SDS011;40444;45.184;9.850;2023-05-27T00:46:26;19.60;;;16.02;;
54545;SDS011;40444;45.184;9.850;2023-05-27T00:48:55;22.20;;;17.95;;
54545;SDS011;40444;45.184;9.850;2023-05-27T00:51:24;24.60;;;19.05;;
54545;SDS011;40444;45.184;9.850;2023-05-27T00:53:53;26.40;;;19.33;;
54545;SDS011;40444;45.184;9.850;2023-05-27T00:56:21;24.25;;;19.83;;
54545;SDS011;40444;45.184;9.850;2023-05-27T00:58:50;25.95;;;21.35;;
54545;SDS011;40444;45.184;9.850;2023-05-27T01:01:19;25.90;;;21.95;;
54545;SDS011;40444;45.184;9.850;2023-05-27T01:03:48;26.70;;;21.38;;
54545;SDS011;40444;45.184;9.850;2023-05-27T01:06:21;27.80;;;22.08;;
54545;SDS011;40444;45.184;9.850;2023-05-27T01:09:09;29.50;;;22.13;;
54545;SDS011;40444;45.184;9.850;2023-05-27T01:11:47;27.10;;;22.15;;
54545;SDS011;40444;45.184;9.850;2023-05-27T01:14:22;26.88;;;22.88;;
54545;SDS011;40444;45.184;9.850;2023-05-27T01:16:54;27.45;;;23.50;;
54545;SDS011;40444;45.184;9.850;2023-05-27T01:19:35;25.10;;;22.33;;
54545;SDS011;40444;45.184;9.850;2023-05-27T01:22:14;30.23;;;22.63;;
54545;SDS011;40444;45.184;9.850;2023-05-27T01:24:43;29.15;;;22.90;;
54545;SDS011;40444;45.184;9.850;2023-05-27T01:27:12;26.77;;;22.50;;
54545;SDS011;40444;45.184;9.850;2023-05-27T01:29:41;30.02;;;22.75;;
54545;SDS011;40444;45.184;9.850;2023-05-27T01:32:18;26.48;;;22.30;;
54545;SDS011;40444;45.184;9.850;2023-05-27T01:37:55;29.85;;;22.98;;
54545;SDS011;40444;45.184;9.850;2023-05-27T01:40:26;28.48;;;22.30;;
54545;SDS011;40444;45.184;9.850;2023-05-27T01:42:56;29.52;;;23.08;;
54545;SDS011;40444;45.184;9.850;2023-05-27T01:45:27;25.30;;;21.23;;
54545;SDS011;40444;45.184;9.850;2023-05-27T01:47:56;26.25;;;20.67;;
54545;SDS011;40444;45.184;9.850;2023-05-27T01:50:25;25.45;;;20.65;;
54545;SDS011;40444;45.184;9.850;2023-05-27T01:52:53;26.42;;;20.65;;
54545;SDS011;40444;45.184;9.850;2023-05-27T01:55:22;28.60;;;20.52;;
54545;SDS011;40444;45.184;9.850;2023-05-27T01:57:52;31.27;;;21.63;;
54545;SDS011;40444;45.184;9.850;2023-05-27T02:00:21;22.85;;;19.95;;
54545;SDS011;40444;45.184;9.850;2023-05-27T02:02:51;28.73;;;21.35;;
54545;SDS011;40444;45.184;9.850;2023-05-27T02:05:19;28.70;;;21.90;;
54545;SDS011;40444;45.184;9.850;2023-05-27T02:07:48;28.08;;;22.35;;
54545;SDS011;40444;45.184;9.850;2023-05-27T02:10:16;25.05;;;21.92;;
54545;SDS011;40444;45.184;9.850;2023-05-27T02:12:46;26.75;;;21.42;;
54545;SDS011;40444;45.184;9.850;2023-05-27T02:15:18;25.00;;;20.38;;
54545;SDS011;40444;45.184;9.850;2023-05-27T02:17:49;26.17;;;21.23;;
54545;SDS011;40444;45.184;9.850;2023-05-27T02:20:23;26.75;;;21.08;;
54545;SDS011;40444;45.184;9.850;2023-05-27T02:22:52;24.80;;;22.00;;
54545;SDS011;40444;45.184;9.850;2023-05-27T02:25:21;32.65;;;20.58;;
54545;SDS011;40444;45.184;9.850;2023-05-27T02:27:49;24.00;;;19.70;;
54545;SDS011;40444;45.184;9.850;2023-05-27T02:30:20;19.52;;;16.98;;
54545;SDS011;40444;45.184;9.850;2023-05-27T02:32:49;26.30;;;16.48;;
54545;SDS011;40444;45.184;9.850;2023-05-27T02:35:18;16.95;;;15.15;;
54545;SDS011;40444;45.184;9.850;2023-05-27T02:37:47;17.90;;;13.68;;
54545;SDS011;40444;45.184;9.850;2023-05-27T02:40:25;13.45;;;11.07;;
54545;SDS011;40444;45.184;9.850;2023-05-27T02:42:55;15.30;;;10.93;;
54545;SDS011;40444;45.184;9.850;2023-05-27T02:45:25;11.43;;;9.98;;
54545;SDS011;40444;45.184;9.850;2023-05-27T02:47:53;12.23;;;9.00;;
54545;SDS011;40444;45.184;9.850;2023-05-27T02:50:23;14.60;;;8.23;;
54545;SDS011;40444;45.184;9.850;2023-05-27T02:52:52;9.63;;;7.50;;
54545;SDS011;40444;45.184;9.850;2023-05-27T02:55:20;11.95;;;8.00;;
54545;SDS011;40444;45.184;9.850;2023-05-27T02:57:49;10.77;;;8.13;;
54545;SDS011;40444;45.184;9.850;2023-05-27T03:00:18;10.65;;;7.47;;
54545;SDS011;40444;45.184;9.850;2023-05-27T03:02:48;9.25;;;7.40;;
54545;SDS011;40444;45.184;9.850;2023-05-27T03:05:17;10.93;;;8.18;;
54545;SDS011;40444;45.184;9.850;2023-05-27T03:07:45;10.85;;;8.23;;
54545;SDS011;40444;45.184;9.850;2023-05-27T03:10:14;9.13;;;8.10;;
54545;SDS011;40444;45.184;9.850;2023-05-27T03:12:42;12.52;;;7.88;;
54545;SDS011;40444;45.184;9.850;2023-05-27T03:15:11;10.73;;;8.05;;
54545;SDS011;40444;45.184;9.850;2023-05-27T03:17:40;10.35;;;8.75;;
54545;SDS011;40444;45.184;9.850;2023-05-27T03:20:09;10.82;;;8.75;;
54545;SDS011;40444;45.184;9.850;2023-05-27T03:22:39;10.90;;;9.50;;
54545;SDS011;40444;45.184;9.850;2023-05-27T03:25:08;13.38;;;9.80;;
54545;SDS011;40444;45.184;9.850;2023-05-27T03:27:38;12.00;;;8.90;;
54545;SDS011;40444;45.184;9.850;2023-05-27T03:30:10;10.18;;;8.57;;
54545;SDS011;40444;45.184;9.850;2023-05-27T03:32:44;9.52;;;8.00;;
54545;SDS011;40444;45.184;9.850;2023-05-27T03:35:14;9.50;;;7.85;;
54545;SDS011;40444;45.184;9.850;2023-05-27T03:37:45;8.25;;;7.22;;
54545;SDS011;40444;45.184;9.850;2023-05-27T03:40:14;8.95;;;7.20;;
54545;SDS011;40444;45.184;9.850;2023-05-27T03:42:42;6.90;;;5.38;;
54545;SDS011;40444;45.184;9.850;2023-05-27T03:45:12;7.25;;;5.35;;
54545;SDS011;40444;45.184;9.850;2023-05-27T03:47:41;5.68;;;4.65;;
54545;SDS011;40444;45.184;9.850;2023-05-27T03:50:09;6.57;;;4.45;;
54545;SDS011;40444;45.184;9.850;2023-05-27T03:52:38;5.65;;;4.35;;
54545;SDS011;40444;45.184;9.850;2023-05-27T03:55:06;5.78;;;4.25;;
54545;SDS011;40444;45.184;9.850;2023-05-27T03:57:35;5.53;;;4.05;;
54545;SDS011;40444;45.184;9.850;2023-05-27T04:00:06;9.18;;;4.88;;
54545;SDS011;40444;45.184;9.850;2023-05-27T04:02:48;6.35;;;4.00;;
54545;SDS011;40444;45.184;9.850;2023-05-27T04:05:17;6.53;;;4.47;;
54545;SDS011;40444;45.184;9.850;2023-05-27T04:07:45;5.22;;;4.10;;
54545;SDS011;40444;45.184;9.850;2023-05-27T04:10:14;5.43;;;4.03;;
54545;SDS011;40444;45.184;9.850;2023-05-27T04:12:42;4.15;;;3.60;;
54545;SDS011;40444;45.184;9.850;2023-05-27T04:15:13;5.45;;;4.13;;
54545;SDS011;40444;45.184;9.850;2023-05-27T04:17:41;6.07;;;4.10;;
54545;SDS011;40444;45.184;9.850;2023-05-27T04:20:09;5.10;;;3.92;;
54545;SDS011;40444;45.184;9.850;2023-05-27T04:22:49;4.88;;;3.80;;
54545;SDS011;40444;45.184;9.850;2023-05-27T04:25:17;5.57;;;4.40;;
54545;SDS011;40444;45.184;9.850;2023-05-27T04:28:03;5.05;;;4.10;;
54545;SDS011;40444;45.184;9.850;2023-05-27T04:30:35;6.50;;;4.53;;
54545;SDS011;40444;45.184;9.850;2023-05-27T04:33:10;5.85;;;3.67;;
54545;SDS011;40444;45.184;9.850;2023-05-27T04:35:39;4.57;;;3.67;;
54545;SDS011;40444;45.184;9.850;2023-05-27T04:38:12;6.57;;;3.90;;
54545;SDS011;40444;45.184;9.850;2023-05-27T04:40:58;5.63;;;3.55;;
54545;SDS011;40444;45.184;9.850;2023-05-27T04:43:45;4.28;;;3.80;;
54545;SDS011;40444;45.184;9.850;2023-05-27T04:46:16;4.43;;;3.80;;
54545;SDS011;40444;45.184;9.850;2023-05-27T04:48:44;5.68;;;3.72;;
54545;SDS011;40444;45.184;9.850;2023-05-27T04:51:13;4.50;;;3.47;;
54545;SDS011;40444;45.184;9.850;2023-05-27T04:53:43;5.57;;;4.18;;
54545;SDS011;40444;45.184;9.850;2023-05-27T04:56:14;5.53;;;4.22;;
54545;SDS011;40444;45.184;9.850;2023-05-27T04:58:44;5.55;;;4.30;;
54545;SDS011;40444;45.184;9.850;2023-05-27T05:01:20;5.03;;;4.00;;
54545;SDS011;40444;45.184;9.850;2023-05-27T05:04:02;6.03;;;4.70;;
54545;SDS011;40444;45.184;9.850;2023-05-27T05:06:50;5.70;;;4.22;;
54545;SDS011;40444;45.184;9.850;2023-05-27T05:09:20;4.82;;;4.32;;
54545;SDS011;40444;45.184;9.850;2023-05-27T05:11:50;5.88;;;5.15;;
54545;SDS011;40444;45.184;9.850;2023-05-27T05:14:18;6.95;;;4.75;;
54545;SDS011;40444;45.184;9.850;2023-05-27T05:16:47;6.32;;;4.28;;
54545;SDS011;40444;45.184;9.850;2023-05-27T05:19:17;6.07;;;4.80;;
54545;SDS011;40444;45.184;9.850;2023-05-27T05:21:46;7.03;;;5.15;;
54545;SDS011;40444;45.184;9.850;2023-05-27T05:24:15;6.55;;;5.30;;
54545;SDS011;40444;45.184;9.850;2023-05-27T05:26:44;5.22;;;4.35;;
54545;SDS011;40444;45.184;9.850;2023-05-27T05:29:14;5.60;;;4.68;;
54545;SDS011;40444;45.184;9.850;2023-05-27T05:31:42;5.20;;;4.70;;
54545;SDS011;40444;45.184;9.850;2023-05-27T05:34:15;7.00;;;5.05;;
54545;SDS011;40444;45.184;9.850;2023-05-27T05:36:44;6.25;;;4.78;;
54545;SDS011;40444;45.184;9.850;2023-05-27T05:39:13;5.22;;;4.40;;
54545;SDS011;40444;45.184;9.850;2023-05-27T05:41:46;7.15;;;5.03;;
54545;SDS011;40444;45.184;9.850;2023-05-27T05:44:17;6.18;;;4.95;;
54545;SDS011;40444;45.184;9.850;2023-05-27T05:46:47;7.97;;;4.88;;
54545;SDS011;40444;45.184;9.850;2023-05-27T05:49:17;7.00;;;5.78;;
54545;SDS011;40444;45.184;9.850;2023-05-27T05:51:46;6.22;;;5.53;;
54545;SDS011;40444;45.184;9.850;2023-05-27T05:54:17;7.15;;;5.50;;
54545;SDS011;40444;45.184;9.850;2023-05-27T05:56:51;7.45;;;5.22;;
54545;SDS011;40444;45.184;9.850;2023-05-27T05:59:20;6.30;;;4.85;;
54545;SDS011;40444;45.184;9.850;2023-05-27T06:01:48;6.78;;;5.07;;
54545;SDS011;40444;45.184;9.850;2023-05-27T06:04:22;7.25;;;5.18;;
54545;SDS011;40444;45.184;9.850;2023-05-27T06:06:51;7.50;;;5.47;;
